地図

経路データ

SID SEASON NUMBER BASIN SUBBASIN NAME ISO_TIME NATURE LAT LON WMO_WIND WMO_PRES WMO_AGENCY TRACK_TYPE DIST2LAND LANDFALL IFLAG USA_AGENCY USA_ATCF_ID USA_LAT USA_LON USA_RECORD USA_STATUS USA_WIND USA_PRES USA_SSHS USA_R34_NE USA_R34_SE USA_R34_SW USA_R34_NW USA_R50_NE USA_R50_SE USA_R50_SW USA_R50_NW USA_R64_NE USA_R64_SE USA_R64_SW USA_R64_NW USA_POCI USA_ROCI USA_RMW USA_EYE TOKYO_LAT TOKYO_LON TOKYO_GRADE TOKYO_WIND TOKYO_PRES TOKYO_R50_DIR TOKYO_R50_LONG TOKYO_R50_SHORT TOKYO_R30_DIR TOKYO_R30_LONG TOKYO_R30_SHORT TOKYO_LAND CMA_LAT CMA_LON CMA_CAT CMA_WIND CMA_PRES HKO_LAT HKO_LON HKO_CAT HKO_WIND HKO_PRES NEWDELHI_LAT NEWDELHI_LON NEWDELHI_GRADE NEWDELHI_WIND NEWDELHI_PRES NEWDELHI_CI NEWDELHI_DP NEWDELHI_POCI REUNION_LAT REUNION_LON REUNION_TYPE REUNION_WIND REUNION_PRES REUNION_TNUM REUNION_CI REUNION_RMW REUNION_R34_NE REUNION_R34_SE REUNION_R34_SW REUNION_R34_NW REUNION_R50_NE REUNION_R50_SE REUNION_R50_SW REUNION_R50_NW REUNION_R64_NE REUNION_R64_SE REUNION_R64_SW REUNION_R64_NW BOM_LAT BOM_LON BOM_TYPE BOM_WIND BOM_PRES BOM_TNUM BOM_CI BOM_RMW BOM_R34_NE BOM_R34_SE BOM_R34_SW BOM_R34_NW BOM_R50_NE BOM_R50_SE BOM_R50_SW BOM_R50_NW BOM_R64_NE BOM_R64_SE BOM_R64_SW BOM_R64_NW BOM_ROCI BOM_POCI BOM_EYE BOM_POS_METHOD BOM_PRES_METHOD NADI_LAT NADI_LON NADI_CAT NADI_WIND NADI_PRES WELLINGTON_LAT WELLINGTON_LON WELLINGTON_WIND WELLINGTON_PRES DS824_LAT DS824_LON DS824_STAGE DS824_WIND DS824_PRES TD9636_LAT TD9636_LON TD9636_STAGE TD9636_WIND TD9636_PRES TD9635_LAT TD9635_LON TD9635_WIND TD9635_PRES TD9635_ROCI NEUMANN_LAT NEUMANN_LON NEUMANN_CLASS NEUMANN_WIND NEUMANN_PRES MLC_LAT MLC_LON MLC_CLASS MLC_WIND MLC_PRES USA_GUST BOM_GUST BOM_GUST_PER REUNION_GUST REUNION_GUST_PER USA_SEAHGT USA_SEARAD_NE USA_SEARAD_SE USA_SEARAD_SW USA_SEARAD_NW STORM_SPEED STORM_DIR
1949243N12304 1949 61 NA NA NOT_NAMED 1949-08-30 18:00:00 TS 11.9000 -55.8000 30 hurdat_atl main 560 549 O_____________ hurdat_atl AL031949 11.9000 -55.8000 TD 30 -1 7 293
1949243N12304 1949 61 NA NA NOT_NAMED 1949-08-30 21:00:00 TS 12.0401 -56.1400 main 549 518 P_____________ AL031949 12.0401 -56.1400 TD 30 -1 7 294
1949243N12304 1949 61 NA NA NOT_NAMED 1949-08-31 00:00:00 TS 12.2000 -56.5000 30 hurdat_atl main 518 485 O_____________ hurdat_atl AL031949 12.2000 -56.5000 TD 30 -1 8 296
1949243N12304 1949 61 NA NA NOT_NAMED 1949-08-31 03:00:00 TS 12.3925 -56.8925 main 485 455 P_____________ AL031949 12.3925 -56.8925 TD 32 -1 9 297
1949243N12304 1949 61 NA NA NOT_NAMED 1949-08-31 06:00:00 TS 12.6000 -57.3000 35 hurdat_atl main 455 429 O_____________ hurdat_atl AL031949 12.6000 -57.3000 TS 35 0 9 298
1949243N12304 1949 61 NA NA NOT_NAMED 1949-08-31 09:00:00 TS 12.8074 -57.6925 main 429 407 P_____________ AL031949 12.8074 -57.6925 TS 35 0 9 297
1949243N12304 1949 61 NA NA NOT_NAMED 1949-08-31 12:00:00 TS 13.0000 -58.1000 35 hurdat_atl main 407 382 O_____________ hurdat_atl AL031949 13.0000 -58.1000 TS 35 0 9 293
1949243N12304 1949 61 NA NA NOT_NAMED 1949-08-31 15:00:00 TS 13.1574 -58.5351 main 390 363 P_____________ AL031949 13.1574 -58.5351 TS 37 0 9 289
1949243N12304 1949 61 NA NA NOT_NAMED 1949-08-31 18:00:00 TS 13.3000 -59.0000 40 hurdat_atl main 363 343 O_____________ hurdat_atl AL031949 13.3000 -59.0000 TS 40 0 10 287
1949243N12304 1949 61 NA CS NOT_NAMED 1949-08-31 21:00:00 TS 13.4499 -59.4925 main 343 339 P_____________ AL031949 13.4499 -59.4925 TS 40 0 10 287
1949243N12304 1949 61 NA CS NOT_NAMED 1949-09-01 00:00:00 TS 13.6000 -60.0000 40 hurdat_atl main 342 336 O_____________ hurdat_atl AL031949 13.6000 -60.0000 TS 40 0 10 287
1949243N12304 1949 61 NA CS NOT_NAMED 1949-09-01 03:00:00 TS 13.7499 -60.5001 main 340 340 P_____________ AL031949 13.7499 -60.5001 TS 40 0 10 287
1949243N12304 1949 61 NA CS NOT_NAMED 1949-09-01 06:00:00 TS 13.9000 -61.0000 40 hurdat_atl main 358 358 O_____________ hurdat_atl AL031949 13.9000 -61.0000 L TS 40 0 10 287
1949243N12304 1949 61 NA CS NOT_NAMED 1949-09-01 09:00:00 TS 14.0348 -61.4852 main 369 369 P_____________ AL031949 14.0348 -61.4852 TS 40 0 10 287
1949243N12304 1949 61 NA CS NOT_NAMED 1949-09-01 12:00:00 TS 14.2000 -62.0000 40 hurdat_atl main 392 392 O_____________ hurdat_atl AL031949 14.2000 -62.0000 TS 40 0 11 291
1949243N12304 1949 61 NA CS NOT_NAMED 1949-09-01 15:00:00 TS 14.4500 -62.5849 main 414 414 P_____________ AL031949 14.4500 -62.5849 TS 40 0 13 293
1949243N12304 1949 61 NA CS NOT_NAMED 1949-09-01 18:00:00 TS 14.7000 -63.2000 40 hurdat_atl main 448 407 O_____________ hurdat_atl AL031949 14.7000 -63.2000 TS 40 0 13 289
1949243N12304 1949 61 NA CS NOT_NAMED 1949-09-01 21:00:00 TS 14.8725 -63.8301 main 407 367 P_____________ AL031949 14.8725 -63.8301 TS 40 0 12 285
1949243N12304 1949 61 NA CS NOT_NAMED 1949-09-02 00:00:00 TS 15.0000 -64.4000 40 hurdat_atl main 367 341 O_____________ hurdat_atl AL031949 15.0000 -64.4000 TS 40 0 10 284
1949243N12304 1949 61 NA CS NOT_NAMED 1949-09-02 03:00:00 TS 15.1147 -64.8301 main 341 319 P_____________ AL031949 15.1147 -64.8301 TS 40 0 8 285
1949243N12304 1949 61 NA CS NOT_NAMED 1949-09-02 06:00:00 TS 15.2000 -65.2000 40 hurdat_atl main 319 297 O_____________ hurdat_atl AL031949 15.2000 -65.2000 TS 40 0 8 282
1949243N12304 1949 61 NA CS NOT_NAMED 1949-09-02 09:00:00 TS 15.2649 -65.5925 main 297 291 P_____________ AL031949 15.2649 -65.5925 TS 40 0 8 277
1949243N12304 1949 61 NA CS NOT_NAMED 1949-09-02 12:00:00 TS 15.3000 -66.0000 40 hurdat_atl main 291 290 O_____________ hurdat_atl AL031949 15.3000 -66.0000 TS 40 0 8 273
1949243N12304 1949 61 NA CS NOT_NAMED 1949-09-02 15:00:00 TS 15.3074 -66.4276 main 291 290 P_____________ AL031949 15.3074 -66.4276 TS 35 0 9 270
1949243N12304 1949 61 NA CS NOT_NAMED 1949-09-02 18:00:00 TS 15.3000 -66.9000 30 hurdat_atl main 290 290 O_____________ hurdat_atl AL031949 15.3000 -66.9000 TD 30 -1 10 269
1949243N12304 1949 61 NA CS NOT_NAMED 1949-09-02 21:00:00 TS 15.2978 -67.4325 main 291 291 P_____________ AL031949 15.2978 -67.4325 TD 27 -1 11 270
1949243N12304 1949 61 NA CS NOT_NAMED 1949-09-03 00:00:00 TS 15.3000 -68.0000 25 hurdat_atl main 303 O_____________ hurdat_atl AL031949 15.3000 -68.0000 TD 25 -1 11 270

IBTrACS Databaseについて

本データベースは、米国NOAAが公開する1842年以降の世界の熱帯低気圧のベストトラックデータアーカイブInternational Best Track Archive for Climate Stewardship (IBTrACS)を、ウェブで閲覧しやすい形式に変換したものです。

最終更新日:2021-10-25